sensor_id;sensor_type;location;lat;lon;timestamp;temperature;humidity
1447;DHT22;717;51.522;7.266;2023-02-15T00:00:12;12.40;99.90
1447;DHT22;717;51.522;7.266;2023-02-15T00:02:40;12.40;99.90
1447;DHT22;717;51.522;7.266;2023-02-15T00:05:09;12.40;99.90
1447;DHT22;717;51.522;7.266;2023-02-15T00:07:37;12.40;99.90
1447;DHT22;717;51.522;7.266;2023-02-15T00:10:07;12.40;99.90
1447;DHT22;717;51.522;7.266;2023-02-15T00:12:40;12.30;99.90
1447;DHT22;717;51.522;7.266;2023-02-15T00:15:08;12.40;99.90
1447;DHT22;717;51.522;7.266;2023-02-15T00:17:38;12.40;99.90
1447;DHT22;717;51.522;7.266;2023-02-15T00:20:08;12.30;99.90
1447;DHT22;717;51.522;7.266;2023-02-15T00:22:36;12.30;99.90
1447;DHT22;717;51.522;7.266;2023-02-15T00:25:05;12.30;99.90
1447;DHT22;717;51.522;7.266;2023-02-15T00:27:34;12.30;99.90
1447;DHT22;717;51.522;7.266;2023-02-15T00:30:06;12.30;99.90
1447;DHT22;717;51.522;7.266;2023-02-15T00:32:35;12.30;99.90
1447;DHT22;717;51.522;7.266;2023-02-15T00:35:04;12.20;99.90
1447;DHT22;717;51.522;7.266;2023-02-15T00:37:33;12.20;99.90
1447;DHT22;717;51.522;7.266;2023-02-15T00:40:02;12.20;99.90
1447;DHT22;717;51.522;7.266;2023-02-15T00:42:30;12.20;99.90
1447;DHT22;717;51.522;7.266;2023-02-15T00:44:59;12.20;99.90
1447;DHT22;717;51.522;7.266;2023-02-15T00:47:30;12.10;99.90
1447;DHT22;717;51.522;7.266;2023-02-15T00:49:59;12.10;99.90
1447;DHT22;717;51.522;7.266;2023-02-15T00:52:28;12.10;99.90
1447;DHT22;717;51.522;7.266;2023-02-15T00:54:57;12.10;99.90
1447;DHT22;717;51.522;7.266;2023-02-15T00:57:26;12.10;99.90
1447;DHT22;717;51.522;7.266;2023-02-15T00:59:54;12.00;99.90
1447;DHT22;717;51.522;7.266;2023-02-15T01:02:23;12.00;99.90
1447;DHT22;717;51.522;7.266;2023-02-15T01:04:54;12.00;99.90
1447;DHT22;717;51.522;7.266;2023-02-15T01:07:22;12.00;99.90
1447;DHT22;717;51.522;7.266;2023-02-15T01:09:51;12.00;99.90
1447;DHT22;717;51.522;7.266;2023-02-15T01:12:19;11.90;99.90
1447;DHT22;717;51.522;7.266;2023-02-15T01:14:48;11.80;99.90
1447;DHT22;717;51.522;7.266;2023-02-15T01:17:17;11.80;99.90
1447;DHT22;717;51.522;7.266;2023-02-15T01:19:45;11.80;99.90
1447;DHT22;717;51.522;7.266;2023-02-15T01:22:17;11.70;99.90
1447;DHT22;717;51.522;7.266;2023-02-15T01:24:48;11.70;99.90
1447;DHT22;717;51.522;7.266;2023-02-15T01:27:17;11.70;99.90
1447;DHT22;717;51.522;7.266;2023-02-15T01:29:45;11.70;99.90
1447;DHT22;717;51.522;7.266;2023-02-15T01:32:14;11.70;99.90
1447;DHT22;717;51.522;7.266;2023-02-15T01:34:43;11.70;99.90
1447;DHT22;717;51.522;7.266;2023-02-15T01:37:11;11.60;99.90
1447;DHT22;717;51.522;7.266;2023-02-15T01:39:42;11.70;99.90
1447;DHT22;717;51.522;7.266;2023-02-15T01:42:11;11.70;99.90
1447;DHT22;717;51.522;7.266;2023-02-15T01:44:51;11.60;99.90
1447;DHT22;717;51.522;7.266;2023-02-15T01:47:23;11.60;99.90
1447;DHT22;717;51.522;7.266;2023-02-15T01:50:00;11.60;99.90
1447;DHT22;717;51.522;7.266;2023-02-15T01:52:30;11.60;99.90
1447;DHT22;717;51.522;7.266;2023-02-15T01:55:02;11.60;99.90
1447;DHT22;717;51.522;7.266;2023-02-15T01:57:31;11.50;99.90
1447;DHT22;717;51.522;7.266;2023-02-15T02:00:02;11.50;99.90
1447;DHT22;717;51.522;7.266;2023-02-15T02:02:32;11.60;99.90
1447;DHT22;717;51.522;7.266;2023-02-15T02:05:03;11.50;99.90
1447;DHT22;717;51.522;7.266;2023-02-15T02:07:36;11.40;99.90
1447;DHT22;717;51.522;7.266;2023-02-15T02:10:11;11.40;99.90
1447;DHT22;717;51.522;7.266;2023-02-15T02:12:41;11.40;99.90
1447;DHT22;717;51.522;7.266;2023-02-15T02:15:10;11.30;99.90
1447;DHT22;717;51.522;7.266;2023-02-15T02:17:49;11.30;99.90
1447;DHT22;717;51.522;7.266;2023-02-15T02:20:30;11.30;99.90
1447;DHT22;717;51.522;7.266;2023-02-15T02:23:21;11.20;99.90
1447;DHT22;717;51.522;7.266;2023-02-15T02:26:19;11.30;99.90
1447;DHT22;717;51.522;7.266;2023-02-15T02:32:22;11.20;99.90
1447;DHT22;717;51.522;7.266;2023-02-15T02:35:03;11.20;99.90
1447;DHT22;717;51.522;7.266;2023-02-15T02:37:43;11.20;99.90
1447;DHT22;717;51.522;7.266;2023-02-15T02:40:20;11.20;99.90
1447;DHT22;717;51.522;7.266;2023-02-15T02:42:58;11.10;99.90
1447;DHT22;717;51.522;7.266;2023-02-15T02:45:32;11.10;99.90
1447;DHT22;717;51.522;7.266;2023-02-15T02:48:07;11.10;99.90
1447;DHT22;717;51.522;7.266;2023-02-15T02:50:41;11.10;99.90
1447;DHT22;717;51.522;7.266;2023-02-15T02:53:10;11.10;99.90
1447;DHT22;717;51.522;7.266;2023-02-15T02:55:41;11.10;99.90
1447;DHT22;717;51.522;7.266;2023-02-15T02:58:17;11.10;99.90
1447;DHT22;717;51.522;7.266;2023-02-15T03:00:50;11.10;99.90
1447;DHT22;717;51.522;7.266;2023-02-15T03:03:24;11.10;99.90
1447;DHT22;717;51.522;7.266;2023-02-15T03:05:59;11.00;99.90
1447;DHT22;717;51.522;7.266;2023-02-15T03:08:35;11.00;99.90
1447;DHT22;717;51.522;7.266;2023-02-15T03:11:06;11.00;99.90
1447;DHT22;717;51.522;7.266;2023-02-15T03:13:35;11.00;99.90
1447;DHT22;717;51.522;7.266;2023-02-15T03:16:05;11.00;99.90
1447;DHT22;717;51.522;7.266;2023-02-15T03:18:48;11.00;99.90
1447;DHT22;717;51.522;7.266;2023-02-15T03:21:22;11.00;99.90
1447;DHT22;717;51.522;7.266;2023-02-15T03:23:56;11.00;99.90
1447;DHT22;717;51.522;7.266;2023-02-15T03:26:27;11.00;99.90
1447;DHT22;717;51.522;7.266;2023-02-15T03:28:58;11.00;99.90
1447;DHT22;717;51.522;7.266;2023-02-15T03:31:32;11.00;99.90
1447;DHT22;717;51.522;7.266;2023-02-15T03:34:04;10.90;99.90
1447;DHT22;717;51.522;7.266;2023-02-15T03:36:41;11.00;99.90
1447;DHT22;717;51.522;7.266;2023-02-15T03:39:18;10.90;99.90
1447;DHT22;717;51.522;7.266;2023-02-15T03:41:55;10.90;99.90
1447;DHT22;717;51.522;7.266;2023-02-15T03:44:27;10.90;99.90
1447;DHT22;717;51.522;7.266;2023-02-15T03:47:02;10.90;99.90
1447;DHT22;717;51.522;7.266;2023-02-15T03:49:38;10.90;99.90
1447;DHT22;717;51.522;7.266;2023-02-15T03:52:11;10.80;99.90
1447;DHT22;717;51.522;7.266;2023-02-15T03:54:39;10.80;99.90
1447;DHT22;717;51.522;7.266;2023-02-15T03:57:15;10.80;99.90
1447;DHT22;717;51.522;7.266;2023-02-15T03:59:57;10.70;99.90
1447;DHT22;717;51.522;7.266;2023-02-15T04:02:46;10.70;99.90
1447;DHT22;717;51.522;7.266;2023-02-15T04:05:16;10.70;99.90
1447;DHT22;717;51.522;7.266;2023-02-15T04:07:48;10.70;99.90
1447;DHT22;717;51.522;7.266;2023-02-15T04:10:16;10.60;99.90
1447;DHT22;717;51.522;7.266;2023-02-15T04:12:58;10.60;99.90
1447;DHT22;717;51.522;7.266;2023-02-15T04:15:26;10.60;99.90
1447;DHT22;717;51.522;7.266;2023-02-15T04:18:07;10.60;99.90
1447;DHT22;717;51.522;7.266;2023-02-15T04:20:36;10.60;99.90
1447;DHT22;717;51.522;7.266;2023-02-15T04:23:20;10.60;99.90
1447;DHT22;717;51.522;7.266;2023-02-15T04:26:03;10.60;99.90
1447;DHT22;717;51.522;7.266;2023-02-15T04:28:31;10.60;99.90
1447;DHT22;717;51.522;7.266;2023-02-15T04:31:00;10.60;99.90
1447;DHT22;717;51.522;7.266;2023-02-15T04:33:28;10.60;99.90
1447;DHT22;717;51.522;7.266;2023-02-15T04:35:57;10.50;99.90
1447;DHT22;717;51.522;7.266;2023-02-15T04:38:28;10.50;99.90
1447;DHT22;717;51.522;7.266;2023-02-15T04:40:57;10.50;99.90
1447;DHT22;717;51.522;7.266;2023-02-15T04:43:25;10.50;99.90
1447;DHT22;717;51.522;7.266;2023-02-15T04:45:54;10.50;99.90
1447;DHT22;717;51.522;7.266;2023-02-15T04:48:24;10.50;99.90
1447;DHT22;717;51.522;7.266;2023-02-15T04:50:53;10.50;99.90
1447;DHT22;717;51.522;7.266;2023-02-15T04:53:21;10.40;99.90
1447;DHT22;717;51.522;7.266;2023-02-15T04:55:52;10.40;99.90
1447;DHT22;717;51.522;7.266;2023-02-15T04:58:21;10.40;99.90
1447;DHT22;717;51.522;7.266;2023-02-15T05:00:50;10.40;99.90
1447;DHT22;717;51.522;7.266;2023-02-15T05:03:18;10.40;99.90
1447;DHT22;717;51.522;7.266;2023-02-15T05:05:47;10.40;99.90
1447;DHT22;717;51.522;7.266;2023-02-15T05:08:16;10.30;99.90
1447;DHT22;717;51.522;7.266;2023-02-15T05:10:44;10.30;99.90
1447;DHT22;717;51.522;7.266;2023-02-15T05:13:18;10.30;99.90
1447;DHT22;717;51.522;7.266;2023-02-15T05:15:47;10.30;99.90
1447;DHT22;717;51.522;7.266;2023-02-15T05:18:17;10.30;99.90
1447;DHT22;717;51.522;7.266;2023-02-15T05:20:47;10.30;99.90
1447;DHT22;717;51.522;7.266;2023-02-15T05:23:15;10.30;99.90
1447;DHT22;717;51.522;7.266;2023-02-15T05:25:47;10.30;99.90
1447;DHT22;717;51.522;7.266;2023-02-15T05:28:46;10.20;99.90
1447;DHT22;717;51.522;7.266;2023-02-15T05:31:16;10.20;99.90
1447;DHT22;717;51.522;7.266;2023-02-15T05:33:45;10.20;99.90
1447;DHT22;717;51.522;7.266;2023-02-15T05:36:14;10.20;99.90
1447;DHT22;717;51.522;7.266;2023-02-15T05:38:42;10.20;99.90
1447;DHT22;717;51.522;7.266;2023-02-15T05:41:11;10.20;99.90
1447;DHT22;717;51.522;7.266;2023-02-15T05:43:40;10.20;99.90
1447;DHT22;717;51.522;7.266;2023-02-15T05:46:12;10.20;99.90
1447;DHT22;717;51.522;7.266;2023-02-15T05:48:40;10.20;99.90
1447;DHT22;717;51.522;7.266;2023-02-15T05:51:11;10.20;99.90
1447;DHT22;717;51.522;7.266;2023-02-15T05:53:41;10.20;99.90
1447;DHT22;717;51.522;7.266;2023-02-15T05:56:11;10.20;99.90
1447;DHT22;717;51.522;7.266;2023-02-15T05:58:41;10.20;99.90
1447;DHT22;717;51.522;7.266;2023-02-15T06:01:14;10.10;99.90
1447;DHT22;717;51.522;7.266;2023-02-15T06:03:43;10.10;99.90
1447;DHT22;717;51.522;7.266;2023-02-15T06:06:12;10.10;99.90
1447;DHT22;717;51.522;7.266;2023-02-15T06:08:41;10.10;99.90
1447;DHT22;717;51.522;7.266;2023-02-15T06:11:10;10.10;99.90
1447;DHT22;717;51.522;7.266;2023-02-15T06:13:39;10.10;99.90
1447;DHT22;717;51.522;7.266;2023-02-15T06:16:07;10.10;99.90
1447;DHT22;717;51.522;7.266;2023-02-15T06:18:38;10.10;99.90
1447;DHT22;717;51.522;7.266;2023-02-15T06:21:07;10.10;99.90
1447;DHT22;717;51.522;7.266;2023-02-15T06:23:36;10.10;99.90
1447;DHT22;717;51.522;7.266;2023-02-15T06:26:04;10.10;99.90
1447;DHT22;717;51.522;7.266;2023-02-15T06:28:33;10.10;99.90
1447;DHT22;717;51.522;7.266;2023-02-15T06:31:03;10.10;99.90
1447;DHT22;717;51.522;7.266;2023-02-15T06:33:31;10.20;99.90
1447;DHT22;717;51.522;7.266;2023-02-15T06:36:03;10.10;99.90
1447;DHT22;717;51.522;7.266;2023-02-15T06:38:32;10.20;99.90
1447;DHT22;717;51.522;7.266;2023-02-15T06:41:01;10.20;99.90
1447;DHT22;717;51.522;7.266;2023-02-15T06:43:29;10.20;99.90
1447;DHT22;717;51.522;7.266;2023-02-15T06:45:59;10.20;99.90
1447;DHT22;717;51.522;7.266;2023-02-15T06:48:28;10.20;99.90
1447;DHT22;717;51.522;7.266;2023-02-15T06:50:56;10.20;99.90
1447;DHT22;717;51.522;7.266;2023-02-15T06:53:27;10.20;99.90
1447;DHT22;717;51.522;7.266;2023-02-15T06:56:00;10.20;99.90
1447;DHT22;717;51.522;7.266;2023-02-15T06:58:32;10.10;99.90
1447;DHT22;717;51.522;7.266;2023-02-15T07:01:00;10.10;99.90
1447;DHT22;717;51.522;7.266;2023-02-15T07:03:29;10.10;99.90
1447;DHT22;717;51.522;7.266;2023-02-15T07:05:59;10.20;99.90
1447;DHT22;717;51.522;7.266;2023-02-15T07:08:31;10.20;99.90
1447;DHT22;717;51.522;7.266;2023-02-15T07:10:59;10.20;99.90
1447;DHT22;717;51.522;7.266;2023-02-15T07:13:41;10.10;99.90
1447;DHT22;717;51.522;7.266;2023-02-15T07:16:10;10.20;99.90
1447;DHT22;717;51.522;7.266;2023-02-15T07:18:39;10.20;99.90
1447;DHT22;717;51.522;7.266;2023-02-15T07:21:08;10.10;99.90
1447;DHT22;717;51.522;7.266;2023-02-15T07:23:39;10.20;99.90
1447;DHT22;717;51.522;7.266;2023-02-15T07:26:08;10.20;99.90
1447;DHT22;717;51.522;7.266;2023-02-15T07:28:37;10.20;99.90
1447;DHT22;717;51.522;7.266;2023-02-15T07:31:05;10.20;99.90
1447;DHT22;717;51.522;7.266;2023-02-15T07:33:35;10.20;99.90
1447;DHT22;717;51.522;7.266;2023-02-15T07:36:04;10.20;99.90
1447;DHT22;717;51.522;7.266;2023-02-15T07:38:36;10.20;99.90
1447;DHT22;717;51.522;7.266;2023-02-15T07:41:09;10.20;99.90
1447;DHT22;717;51.522;7.266;2023-02-15T07:43:39;10.20;99.90
1447;DHT22;717;51.522;7.266;2023-02-15T07:46:10;10.20;99.90
1447;DHT22;717;51.522;7.266;2023-02-15T07:48:39;10.20;99.90
1447;DHT22;717;51.522;7.266;2023-02-15T07:51:10;10.20;99.90
1447;DHT22;717;51.522;7.266;2023-02-15T07:53:40;10.20;99.90
1447;DHT22;717;51.522;7.266;2023-02-15T07:56:13;10.20;99.90
1447;DHT22;717;51.522;7.266;2023-02-15T07:58:42;10.30;99.90
1447;DHT22;717;51.522;7.266;2023-02-15T08:01:23;10.30;99.90
1447;DHT22;717;51.522;7.266;2023-02-15T08:03:52;10.30;99.90
1447;DHT22;717;51.522;7.266;2023-02-15T08:06:22;10.30;99.90
1447;DHT22;717;51.522;7.266;2023-02-15T08:08:50;10.30;99.90
1447;DHT22;717;51.522;7.266;2023-02-15T08:11:22;10.30;99.90
1447;DHT22;717;51.522;7.266;2023-02-15T08:13:55;10.30;99.90
1447;DHT22;717;51.522;7.266;2023-02-15T08:16:32;10.30;99.90
1447;DHT22;717;51.522;7.266;2023-02-15T08:19:04;10.30;99.90
1447;DHT22;717;51.522;7.266;2023-02-15T08:21:34;10.40;99.90
1447;DHT22;717;51.522;7.266;2023-02-15T08:24:04;10.40;99.90
1447;DHT22;717;51.522;7.266;2023-02-15T08:26:36;10.40;99.90
1447;DHT22;717;51.522;7.266;2023-02-15T08:29:05;10.40;99.90
1447;DHT22;717;51.522;7.266;2023-02-15T08:31:35;10.40;99.90
1447;DHT22;717;51.522;7.266;2023-02-15T08:34:04;10.40;99.90
1447;DHT22;717;51.522;7.266;2023-02-15T08:36:33;10.40;99.90
1447;DHT22;717;51.522;7.266;2023-02-15T08:39:04;10.50;99.90
1447;DHT22;717;51.522;7.266;2023-02-15T08:41:36;10.50;99.90
1447;DHT22;717;51.522;7.266;2023-02-15T08:44:07;10.50;99.90
1447;DHT22;717;51.522;7.266;2023-02-15T08:46:37;10.60;99.90
1447;DHT22;717;51.522;7.266;2023-02-15T08:49:07;10.60;99.90
1447;DHT22;717;51.522;7.266;2023-02-15T08:51:37;10.60;99.90
1447;DHT22;717;51.522;7.266;2023-02-15T08:54:09;10.60;99.90
1447;DHT22;717;51.522;7.266;2023-02-15T08:56:42;10.70;99.90
1447;DHT22;717;51.522;7.266;2023-02-15T08:59:13;10.70;99.90
1447;DHT22;717;51.522;7.266;2023-02-15T09:01:43;10.70;99.90
1447;DHT22;717;51.522;7.266;2023-02-15T09:04:12;10.70;99.90
1447;DHT22;717;51.522;7.266;2023-02-15T09:06:42;10.70;99.90
1447;DHT22;717;51.522;7.266;2023-02-15T09:09:11;10.80;99.90
1447;DHT22;717;51.522;7.266;2023-02-15T09:11:45;10.80;99.90
1447;DHT22;717;51.522;7.266;2023-02-15T09:14:15;10.90;99.90
1447;DHT22;717;51.522;7.266;2023-02-15T09:16:47;11.00;99.90
1447;DHT22;717;51.522;7.266;2023-02-15T09:19:18;11.00;99.90
1447;DHT22;717;51.522;7.266;2023-02-15T09:21:47;11.00;99.90
1447;DHT22;717;51.522;7.266;2023-02-15T09:24:17;11.10;99.90
1447;DHT22;717;51.522;7.266;2023-02-15T09:26:48;11.10;99.90
1447;DHT22;717;51.522;7.266;2023-02-15T09:29:18;11.20;99.90
1447;DHT22;717;51.522;7.266;2023-02-15T09:31:49;11.20;99.90
1447;DHT22;717;51.522;7.266;2023-02-15T09:34:21;11.20;99.90
1447;DHT22;717;51.522;7.266;2023-02-15T09:36:50;11.30;99.90
1447;DHT22;717;51.522;7.266;2023-02-15T09:39:21;11.30;99.90
1447;DHT22;717;51.522;7.266;2023-02-15T09:48:21;11.50;99.90
1447;DHT22;717;51.522;7.266;2023-02-15T09:51:02;11.50;99.90
1447;DHT22;717;51.522;7.266;2023-02-15T09:53:56;11.60;99.90
1447;DHT22;717;51.522;7.266;2023-02-15T09:56:31;11.70;99.90
1447;DHT22;717;51.522;7.266;2023-02-15T09:59:08;11.70;99.90
1447;DHT22;717;51.522;7.266;2023-02-15T10:01:42;11.80;99.90
1447;DHT22;717;51.522;7.266;2023-02-15T10:04:31;11.90;99.90
1447;DHT22;717;51.522;7.266;2023-02-15T10:07:11;11.90;99.90
1447;DHT22;717;51.522;7.266;2023-02-15T10:09:53;12.00;99.90
1447;DHT22;717;51.522;7.266;2023-02-15T10:12:43;12.00;99.90
1447;DHT22;717;51.522;7.266;2023-02-15T10:15:24;12.10;99.90
1447;DHT22;717;51.522;7.266;2023-02-15T10:18:06;12.20;99.90
1447;DHT22;717;51.522;7.266;2023-02-15T10:20:51;12.30;99.90
1447;DHT22;717;51.522;7.266;2023-02-15T10:23:38;12.30;99.90
1447;DHT22;717;51.522;7.266;2023-02-15T10:26:16;12.40;99.90
1447;DHT22;717;51.522;7.266;2023-02-15T10:28:48;12.40;99.90
1447;DHT22;717;51.522;7.266;2023-02-15T10:31:24;12.50;99.90
1447;DHT22;717;51.522;7.266;2023-02-15T10:34:14;12.50;99.90
1447;DHT22;717;51.522;7.266;2023-02-15T10:39:56;12.60;99.90
1447;DHT22;717;51.522;7.266;2023-02-15T10:42:37;12.70;99.90
1447;DHT22;717;51.522;7.266;2023-02-15T10:45:17;12.80;99.90
1447;DHT22;717;51.522;7.266;2023-02-15T10:48:05;12.80;99.90
1447;DHT22;717;51.522;7.266;2023-02-15T10:50:47;12.90;99.90
1447;DHT22;717;51.522;7.266;2023-02-15T10:53:50;13.00;99.90
1447;DHT22;717;51.522;7.266;2023-02-15T10:56:25;13.00;99.90
1447;DHT22;717;51.522;7.266;2023-02-15T10:59:10;13.10;99.90
1447;DHT22;717;51.522;7.266;2023-02-15T11:01:47;13.20;99.90
1447;DHT22;717;51.522;7.266;2023-02-15T11:04:48;13.30;99.90
1447;DHT22;717;51.522;7.266;2023-02-15T11:07:21;13.30;99.90
1447;DHT22;717;51.522;7.266;2023-02-15T11:09:59;13.40;99.90
1447;DHT22;717;51.522;7.266;2023-02-15T11:12:29;13.50;99.90
1447;DHT22;717;51.522;7.266;2023-02-15T11:15:02;13.50;99.90
1447;DHT22;717;51.522;7.266;2023-02-15T11:17:38;13.60;99.90
1447;DHT22;717;51.522;7.266;2023-02-15T11:20:16;13.70;99.90
1447;DHT22;717;51.522;7.266;2023-02-15T11:22:48;13.80;99.90
1447;DHT22;717;51.522;7.266;2023-02-15T11:25:24;13.90;99.90
1447;DHT22;717;51.522;7.266;2023-02-15T11:27:54;14.00;99.90
1447;DHT22;717;51.522;7.266;2023-02-15T11:30:26;14.10;99.90
1447;DHT22;717;51.522;7.266;2023-02-15T11:32:57;14.20;99.90
1447;DHT22;717;51.522;7.266;2023-02-15T11:35:29;14.40;99.90
1447;DHT22;717;51.522;7.266;2023-02-15T11:38:06;14.50;99.90
1447;DHT22;717;51.522;7.266;2023-02-15T11:40:45;14.60;99.90
1447;DHT22;717;51.522;7.266;2023-02-15T11:43:19;14.60;99.70
1447;DHT22;717;51.522;7.266;2023-02-15T11:45:49;14.80;99.60
1447;DHT22;717;51.522;7.266;2023-02-15T11:48:20;14.90;99.60
1447;DHT22;717;51.522;7.266;2023-02-15T11:50:49;14.90;99.00
1447;DHT22;717;51.522;7.266;2023-02-15T11:53:20;15.10;99.20
1447;DHT22;717;51.522;7.266;2023-02-15T11:55:54;15.20;99.30
1447;DHT22;717;51.522;7.266;2023-02-15T11:58:28;15.30;98.90
1447;DHT22;717;51.522;7.266;2023-02-15T12:01:04;15.40;98.10
1447;DHT22;717;51.522;7.266;2023-02-15T12:03:44;15.50;98.60
1447;DHT22;717;51.522;7.266;2023-02-15T12:06:22;15.60;98.50
1447;DHT22;717;51.522;7.266;2023-02-15T12:08:59;15.70;97.60
1447;DHT22;717;51.522;7.266;2023-02-15T12:11:37;15.80;97.60
1447;DHT22;717;51.522;7.266;2023-02-15T12:14:08;15.90;97.00
1447;DHT22;717;51.522;7.266;2023-02-15T12:16:42;16.00;96.70
1447;DHT22;717;51.522;7.266;2023-02-15T12:19:23;16.10;95.80
1447;DHT22;717;51.522;7.266;2023-02-15T12:21:53;16.20;94.60
1447;DHT22;717;51.522;7.266;2023-02-15T12:24:25;16.30;96.00
1447;DHT22;717;51.522;7.266;2023-02-15T12:27:02;16.40;96.00
1447;DHT22;717;51.522;7.266;2023-02-15T12:29:35;16.40;95.10
1447;DHT22;717;51.522;7.266;2023-02-15T12:32:15;16.50;95.80
1447;DHT22;717;51.522;7.266;2023-02-15T12:34:45;16.60;95.90
1447;DHT22;717;51.522;7.266;2023-02-15T12:37:19;16.60;95.20
1447;DHT22;717;51.522;7.266;2023-02-15T12:39:54;16.70;95.20
1447;DHT22;717;51.522;7.266;2023-02-15T12:42:27;16.80;94.80
1447;DHT22;717;51.522;7.266;2023-02-15T12:44:59;16.90;94.90
1447;DHT22;717;51.522;7.266;2023-02-15T12:47:28;16.90;94.20
1447;DHT22;717;51.522;7.266;2023-02-15T12:50:06;17.00;94.50
1447;DHT22;717;51.522;7.266;2023-02-15T12:52:42;17.10;93.80
1447;DHT22;717;51.522;7.266;2023-02-15T12:55:19;17.10;94.10
1447;DHT22;717;51.522;7.266;2023-02-15T12:58:05;17.20;93.20
1447;DHT22;717;51.522;7.266;2023-02-15T13:00:34;17.20;92.70
1447;DHT22;717;51.522;7.266;2023-02-15T13:03:03;17.30;93.10
1447;DHT22;717;51.522;7.266;2023-02-15T13:05:35;17.30;93.50
1447;DHT22;717;51.522;7.266;2023-02-15T13:08:10;17.40;92.80
1447;DHT22;717;51.522;7.266;2023-02-15T13:10:42;17.40;92.40
1447;DHT22;717;51.522;7.266;2023-02-15T13:13:19;17.60;92.80
1447;DHT22;717;51.522;7.266;2023-02-15T13:15:50;17.60;92.00
1447;DHT22;717;51.522;7.266;2023-02-15T13:18:30;17.70;92.60
1447;DHT22;717;51.522;7.266;2023-02-15T13:21:06;17.80;92.70
1447;DHT22;717;51.522;7.266;2023-02-15T13:23:38;17.90;92.40
1447;DHT22;717;51.522;7.266;2023-02-15T13:26:12;18.00;92.10
1447;DHT22;717;51.522;7.266;2023-02-15T13:28:46;18.00;91.50
1447;DHT22;717;51.522;7.266;2023-02-15T13:31:18;18.10;91.50
1447;DHT22;717;51.522;7.266;2023-02-15T13:33:50;18.20;91.40
1447;DHT22;717;51.522;7.266;2023-02-15T13:36:23;18.30;91.40
1447;DHT22;717;51.522;7.266;2023-02-15T13:39:07;18.30;91.60
1447;DHT22;717;51.522;7.266;2023-02-15T13:41:56;18.40;91.60
1447;DHT22;717;51.522;7.266;2023-02-15T13:44:46;18.50;90.40
1447;DHT22;717;51.522;7.266;2023-02-15T13:47:21;18.50;91.20
1447;DHT22;717;51.522;7.266;2023-02-15T13:50:03;18.60;91.40
1447;DHT22;717;51.522;7.266;2023-02-15T13:52:39;18.60;90.50
1447;DHT22;717;51.522;7.266;2023-02-15T13:55:31;18.70;90.80
1447;DHT22;717;51.522;7.266;2023-02-15T13:58:25;18.80;91.00
1447;DHT22;717;51.522;7.266;2023-02-15T14:01:08;18.80;90.40
1447;DHT22;717;51.522;7.266;2023-02-15T14:03:59;18.80;90.60
1447;DHT22;717;51.522;7.266;2023-02-15T14:06:50;18.90;90.60
1447;DHT22;717;51.522;7.266;2023-02-15T14:09:31;18.90;90.60
1447;DHT22;717;51.522;7.266;2023-02-15T14:12:19;19.00;90.10
1447;DHT22;717;51.522;7.266;2023-02-15T14:15:07;19.00;90.10
1447;DHT22;717;51.522;7.266;2023-02-15T14:17:49;19.00;90.00
1447;DHT22;717;51.522;7.266;2023-02-15T14:20:23;19.10;89.60
1447;DHT22;717;51.522;7.266;2023-02-15T14:22:59;19.10;89.20
1447;DHT22;717;51.522;7.266;2023-02-15T14:25:35;19.10;88.40
1447;DHT22;717;51.522;7.266;2023-02-15T14:28:10;19.20;87.30
1447;DHT22;717;51.522;7.266;2023-02-15T14:30:42;19.20;87.50
1447;DHT22;717;51.522;7.266;2023-02-15T14:33:29;19.30;87.30
1447;DHT22;717;51.522;7.266;2023-02-15T14:35:59;19.30;87.30
1447;DHT22;717;51.522;7.266;2023-02-15T14:38:39;19.40;87.00
1447;DHT22;717;51.522;7.266;2023-02-15T14:41:15;19.40;86.80
1447;DHT22;717;51.522;7.266;2023-02-15T14:43:49;19.40;86.90
1447;DHT22;717;51.522;7.266;2023-02-15T14:46:25;19.50;85.50
1447;DHT22;717;51.522;7.266;2023-02-15T14:49:08;19.50;86.20
1447;DHT22;717;51.522;7.266;2023-02-15T14:51:57;19.50;85.20
1447;DHT22;717;51.522;7.266;2023-02-15T14:54:53;19.50;86.20
1447;DHT22;717;51.522;7.266;2023-02-15T14:57:26;19.50;86.00
1447;DHT22;717;51.522;7.266;2023-02-15T14:59:58;19.50;85.10
1447;DHT22;717;51.522;7.266;2023-02-15T15:02:43;19.50;85.40
1447;DHT22;717;51.522;7.266;2023-02-15T15:05:19;19.50;84.40
1447;DHT22;717;51.522;7.266;2023-02-15T15:07:50;19.50;84.40
1447;DHT22;717;51.522;7.266;2023-02-15T15:10:45;19.40;83.30
1447;DHT22;717;51.522;7.266;2023-02-15T15:13:36;19.40;83.10
1447;DHT22;717;51.522;7.266;2023-02-15T15:16:29;19.40;83.50
1447;DHT22;717;51.522;7.266;2023-02-15T15:18:59;19.30;84.10
1447;DHT22;717;51.522;7.266;2023-02-15T15:21:55;19.30;82.90
1447;DHT22;717;51.522;7.266;2023-02-15T15:24:52;19.30;83.20
1447;DHT22;717;51.522;7.266;2023-02-15T15:27:45;19.20;83.90
1447;DHT22;717;51.522;7.266;2023-02-15T15:37:09;19.20;85.20
1447;DHT22;717;51.522;7.266;2023-02-15T15:40:04;19.10;84.50
1447;DHT22;717;51.522;7.266;2023-02-15T15:42:49;19.10;85.00
1447;DHT22;717;51.522;7.266;2023-02-15T15:48:31;19.00;85.50
1447;DHT22;717;51.522;7.266;2023-02-15T15:51:06;19.00;87.10
1447;DHT22;717;51.522;7.266;2023-02-15T15:53:45;19.00;86.30
1447;DHT22;717;51.522;7.266;2023-02-15T15:56:18;18.90;86.50
1447;DHT22;717;51.522;7.266;2023-02-15T15:58:51;18.90;86.30
1447;DHT22;717;51.522;7.266;2023-02-15T16:01:26;18.90;86.60
1447;DHT22;717;51.522;7.266;2023-02-15T16:03:56;18.80;86.90
1447;DHT22;717;51.522;7.266;2023-02-15T16:06:34;18.80;86.90
1447;DHT22;717;51.522;7.266;2023-02-15T16:09:16;18.70;87.40
1447;DHT22;717;51.522;7.266;2023-02-15T16:11:47;18.70;87.50
1447;DHT22;717;51.522;7.266;2023-02-15T16:14:20;18.70;87.30
1447;DHT22;717;51.522;7.266;2023-02-15T16:16:52;18.60;87.50
1447;DHT22;717;51.522;7.266;2023-02-15T16:19:24;18.50;88.20
1447;DHT22;717;51.522;7.266;2023-02-15T16:21:54;18.50;88.40
1447;DHT22;717;51.522;7.266;2023-02-15T16:24:49;18.50;88.60
1447;DHT22;717;51.522;7.266;2023-02-15T16:27:33;18.40;89.10
1447;DHT22;717;51.522;7.266;2023-02-15T16:30:20;18.40;89.10
1447;DHT22;717;51.522;7.266;2023-02-15T16:32:51;18.30;89.40
1447;DHT22;717;51.522;7.266;2023-02-15T16:35:22;18.10;88.70
1447;DHT22;717;51.522;7.266;2023-02-15T16:37:50;18.10;88.80
1447;DHT22;717;51.522;7.266;2023-02-15T16:40:45;18.00;89.00
1447;DHT22;717;51.522;7.266;2023-02-15T16:43:18;18.00;90.00
1447;DHT22;717;51.522;7.266;2023-02-15T16:45:48;17.90;89.30
1447;DHT22;717;51.522;7.266;2023-02-15T16:48:21;17.80;89.50
1447;DHT22;717;51.522;7.266;2023-02-15T16:50:52;17.70;89.30
1447;DHT22;717;51.522;7.266;2023-02-15T16:53:23;17.70;89.20
1447;DHT22;717;51.522;7.266;2023-02-15T16:55:58;17.60;89.40
1447;DHT22;717;51.522;7.266;2023-02-15T16:58:30;17.60;90.00
1447;DHT22;717;51.522;7.266;2023-02-15T17:01:00;17.50;90.00
1447;DHT22;717;51.522;7.266;2023-02-15T17:03:30;17.50;90.20
1447;DHT22;717;51.522;7.266;2023-02-15T17:06:00;17.40;90.10
1447;DHT22;717;51.522;7.266;2023-02-15T17:08:31;17.40;90.00
1447;DHT22;717;51.522;7.266;2023-02-15T17:11:12;17.30;90.30
1447;DHT22;717;51.522;7.266;2023-02-15T17:16:51;17.20;91.00
1447;DHT22;717;51.522;7.266;2023-02-15T17:19:24;17.10;90.50
1447;DHT22;717;51.522;7.266;2023-02-15T17:21:56;17.10;90.50
1447;DHT22;717;51.522;7.266;2023-02-15T17:24:35;17.00;90.80
1447;DHT22;717;51.522;7.266;2023-02-15T17:27:12;17.00;91.20